Besuchen Sie unsere anderen Wetter Stationen:

Template documentation
and downloads

And another site



METAR-Meldungen aus der Umgebung


Notice: Undefined offset: 1 in /is/htdocs/wp10906056_0YHW7Q9XB7/www/weather28/metar/wsMetarTxt.php on line 88

Notice: Array to string conversion in /is/htdocs/wp10906056_0YHW7Q9XB7/www/weather28/metar/wsMetarTxt.php on line 93
   
EBAW - Antwerp
Aktualisierung: 20-05-2018 21:20
Teilweise bewölkt  
Teilweise bewölkt  
   Wind: Süden 9.3 km/h
Wind: Süden 9.3 km/h
Temperatur: 17°C
Taupunkt: 11°C
Luftfeuchte: 68%
Luftdruck: 1019 hPa
Bewölkt: Teilweise bewölkt
Sichtbarkeit: More than 10 km
Bewölkung: Teilweise bewölkt 5000 ft
EBAW 201920Z 17005KT 140V200 9999 SCT050TCU 17/11 Q1019 TEMPO 3500 SHRA
EBLG - Liège
Aktualisierung: 20-05-2018 21:20
leicht bewölkt  
leicht bewölkt  
   Wind: NW 5.6 km/h
Wind: NW 5.6 km/h
Temperatur: 15°C
Taupunkt: 11°C
Luftfeuchte: 77%
Luftdruck: 1019 hPa
Bewölkt: leicht bewölkt
Sichtbarkeit: More than 10 km
Bewölkung: leicht bewölkt 4000 ft
EBLG 201920Z 32003KT 290V350 9999 FEW040TCU 15/11 Q1019 NOSIG
EBCV - Mons/Bergen
Aktualisierung: 20-05-2018 21:25
leicht bewölkt  
leicht bewölkt  
   Wind: OSO 5.6 km/h
Wind: OSO 5.6 km/h
Temperatur: 14°C
Taupunkt: 13°C
Luftfeuchte: 94%
Luftdruck: 1019 hPa
Bewölkt: leicht bewölkt
Sichtbarkeit: More than 10 km
Bewölkung: leicht bewölkt 7100 ft
EBCV 201925Z AUTO 11003KT 9999 FEW071/// 14/13 Q1019 BLU
EHBK - Maastricht
Aktualisierung: 20-05-2018 21:25
Teilweise bewölkt  
Teilweise bewölkt  
   Wind: Westen 7.4 km/h
Wind: Westen 7.4 km/h
Temperatur: 16°C
Taupunkt: 11°C
Luftfeuchte: 72%
Luftdruck: 1019 hPa
Bewölkt: Teilweise bewölkt
Sichtbarkeit: More than 10 km
Bewölkung: Teilweise bewölkt
EHBK 201925Z AUTO 28004KT 230V320 9999 NSC 16/11 Q1019 NOSIG
ELLX - Luxemburg
Aktualisierung: 01-01-1970 01:00
Nicht aktuell
  
  
   Wind: Windstille
Wind: Windstille
EBOS - Oostende
Aktualisierung: 20-05-2018 21:20
Nebel, leicht bewölkt  
Nebel, leicht bewölkt  
   Wind: Norden 16.7 km/h
Wind: Norden 16.7 km/h
Temperatur: 11°C
Taupunkt: 9°C
Luftfeuchte: 88%
Luftdruck: 1020 hPa
Bewölkt: leicht bewölkt
Sichtbarkeit: 5 km
Bewölkung: leicht bewölkt 2500 ft
EBOS 201920Z 01009KT 4500 BR FEW025 11/09 Q1020 NOSIG

Script entwickelt von  Saratoga-weather.org Angepasst für das Template von  Weerstation Leuven

Sie finden unser Wetter-Infos auch auf:

netzwerkwettercom

European Weather Network

WeatherCloud

Weather Underground

AWEKAS

Citizen Weather Observer Program (CWOP)

HAMweather, WeatherForYou, PWS Weather

Von uns verwendete Ausrüstung:

Wetterstation
Davis VP2 Aktiv Plus 6163EU

Wetterprogramm
Weather Display

Davis VP2 Aktiv Plus  6163EU

Weather Display